Time;durP1;ratioP1;P1;durP2;ratioP2;P2;SDS_P1;SDS_P2;PMS_P1;PMS_P2;Temp;Humidity;BMP_temperature;BMP_pressure;BME280_temperature;BME280_humidity;BME280_pressure;Samples;Min_cycle;Max_cycle;Signal;HPM_P1;HPM_P2
2022/08/04 00:03:01;;;;;;;3.97;3.63;;;;;;;20.45;58.42;97162.03;6251809;22;20213;-73
2022/08/04 00:05:34;;;;;;;4.43;3.50;;;;;;;20.26;59.26;97159.25;6226946;22;20177;-74
2022/08/04 00:08:07;;;;;;;4.07;3.50;;;;;;;20.15;59.59;97161.91;6173850;22;20201;-74
2022/08/04 00:10:36;;;;;;;4.00;3.57;;;;;;;20.07;60.51;97165.13;6174192;22;20288;-73
2022/08/04 00:13:04;;;;;;;3.80;3.47;;;;;;;20.09;60.28;97168.47;6277337;22;20582;-73
2022/08/04 00:15:33;;;;;;;5.27;4.23;;;;;;;20.10;60.69;97164.06;6173921;22;20829;-74
2022/08/04 00:18:04;;;;;;;5.40;3.70;;;;;;;20.02;60.70;97164.69;6174001;22;20635;-74
2022/08/04 00:20:34;;;;;;;6.17;4.00;;;;;;;20.05;61.53;97168.88;6173879;22;20194;-73
2022/08/04 00:23:01;;;;;;;5.40;4.10;;;;;;;20.27;60.57;97156.50;6276865;22;20256;-73
2022/08/04 00:25:28;;;;;;;5.67;4.80;;;;;;;20.42;59.55;97157.03;6276702;22;20175;-73
2022/08/04 00:27:56;;;;;;;5.60;5.10;;;;;;;20.50;59.42;97164.28;6174838;22;20217;-75
2022/08/04 00:30:23;;;;;;;5.33;4.87;;;;;;;20.44;59.25;97147.22;6175005;22;20250;-74
2022/08/04 00:32:52;;;;;;;5.20;4.70;;;;;;;20.26;59.88;97159.25;6278007;22;20200;-74
2022/08/04 00:35:19;;;;;;;5.47;4.87;;;;;;;20.03;61.04;97158.47;6173991;22;20514;-73
2022/08/04 00:37:46;;;;;;;5.00;4.47;;;;;;;19.75;61.55;97147.69;6173896;22;20170;-75
2022/08/04 00:40:39;;;;;;;5.27;4.77;;;;;;;19.69;62.05;97169.19;6174403;22;20923;-74
2022/08/04 00:43:23;;;;;;;5.97;4.70;;;;;;;19.77;62.14;97157.13;6173935;22;20200;-74
2022/08/04 00:46:21;;;;;;;9.43;5.20;;;;;;;19.73;62.50;97163.59;6173904;22;20253;-73
2022/08/04 00:49:10;;;;;;;6.07;5.10;;;;;;;19.85;62.17;97165.22;6277300;22;20706;-75
2022/08/04 00:51:47;;;;;;;6.43;5.63;;;;;;;19.81;62.39;97165.59;6276996;22;20228;-75
2022/08/04 00:55:09;;;;;;;7.40;5.27;;;;;;;19.87;61.97;97165.09;6173513;22;20208;-74
2022/08/04 00:57:49;;;;;;;5.83;5.17;;;;;;;19.78;62.59;97169.31;6173847;22;20197;-75
2022/08/04 01:00:16;;;;;;;5.97;5.30;;;;;;;19.57;63.43;97157.88;6276798;22;20173;-74
2022/08/04 01:02:49;;;;;;;5.20;4.27;;;;;;;19.47;63.78;97160.41;6173844;22;20231;-74
2022/08/04 01:05:28;;;;;;;5.37;4.87;;;;;;;19.58;63.97;97164.00;6175401;22;20192;-74
2022/08/04 01:08:15;;;;;;;6.07;4.90;;;;;;;19.55;63.91;97165.06;6270455;22;20180;-75
2022/08/04 01:11:04;;;;;;;8.00;5.50;;;;;;;19.59;64.03;97161.22;6175309;22;20174;-75
2022/08/04 01:13:46;;;;;;;6.97;5.83;;;;;;;19.83;62.97;97155.78;6175277;22;20186;-74
2022/08/04 01:16:16;;;;;;;6.17;5.57;;;;;;;19.72;63.22;97151.38;6175311;22;20223;-74
2022/08/04 01:18:48;;;;;;;7.40;6.20;;;;;;;19.53;64.28;97163.50;6175139;23;20245;-74
2022/08/04 01:21:28;;;;;;;7.03;5.63;;;;;;;19.45;64.42;97161.50;6253020;22;20203;-72
2022/08/04 01:24:29;;;;;;;6.23;5.63;;;;;;;19.45;64.19;97164.13;6175125;22;20552;-73
2022/08/04 01:27:08;;;;;;;5.83;5.30;;;;;;;19.55;63.81;97161.59;6174794;22;20494;-72
2022/08/04 01:30:05;;;;;;;5.80;5.20;;;;;;;19.65;64.22;97162.53;6175093;22;20166;-74
2022/08/04 01:33:00;;;;;;;5.97;4.50;;;;;;;19.68;64.10;97162.28;6175326;22;20236;-72
2022/08/04 01:35:28;;;;;;;8.63;4.70;;;;;;;19.75;63.54;97156.41;6174788;22;20177;-72
2022/08/04 01:38:17;;;;;;;5.77;5.13;;;;;;;19.67;63.46;97165.88;6304053;22;20657;-72
2022/08/04 01:40:52;;;;;;;5.50;4.90;;;;;;;19.58;63.88;97156.09;6278892;22;20173;-73
2022/08/04 01:43:20;;;;;;;6.70;4.77;;;;;;;19.62;63.65;97158.34;6174804;22;20249;-73
2022/08/04 01:46:00;;;;;;;6.83;4.93;;;;;;;19.42;64.16;97157.31;6175137;22;20678;-72
2022/08/04 01:48:28;;;;;;;17.50;6.03;;;;;;;19.23;64.88;97157.06;6277790;22;20541;-72
2022/08/04 01:51:04;;;;;;;5.60;4.90;;;;;;;19.34;64.68;97162.34;6279050;22;20219;-72
2022/08/04 01:53:35;;;;;;;5.50;4.33;;;;;;;19.68;63.62;97152.59;6175460;22;20590;-73
2022/08/04 01:56:04;;;;;;;5.23;4.57;;;;;;;19.88;62.93;97158.88;6174680;22;20194;-72
2022/08/04 01:58:34;;;;;;;6.83;4.30;;;;;;;19.68;63.40;97146.53;6277782;22;20626;-73
2022/08/04 02:01:12;;;;;;;5.23;4.43;;;;;;;19.77;63.19;97156.28;6277139;22;20209;-72
2022/08/04 02:03:42;;;;;;;5.73;4.17;;;;;;;19.81;63.62;97147.19;6175039;22;20249;-72
2022/08/04 02:06:31;;;;;;;4.83;4.20;;;;;;;19.78;63.31;97150.94;6174679;22;20167;-72
2022/08/04 02:09:20;;;;;;;6.30;4.83;;;;;;;19.55;64.25;97156.34;6175154;22;20637;-72
2022/08/04 02:12:23;;;;;;;4.93;4.37;;;;;;;19.36;64.58;97149.91;6175018;22;20174;-73
2022/08/04 02:15:19;;;;;;;4.70;4.20;;;;;;;19.38;64.56;97155.88;6261462;22;20178;-72
2022/08/04 02:17:58;;;;;;;4.40;4.00;;;;;;;19.34;64.59;97153.63;6174560;22;20174;-72
2022/08/04 02:20:34;;;;;;;4.33;3.80;;;;;;;19.39;64.03;97149.66;6276988;22;20179;-73
2022/08/04 02:23:04;;;;;;;4.50;4.10;;;;;;;19.45;63.78;97149.19;6174407;22;20226;-73
2022/08/04 02:25:38;;;;;;;4.60;4.20;;;;;;;19.25;64.29;97141.16;6174449;22;20248;-72
2022/08/04 02:28:35;;;;;;;5.00;4.13;;;;;;;18.97;65.64;97141.66;6174277;22;20180;-72
2022/08/04 02:31:02;;;;;;;5.60;4.93;;;;;;;18.85;66.11;97155.72;6278126;22;20178;-72
2022/08/04 02:33:36;;;;;;;6.67;5.70;;;;;;;18.82;66.45;97159.44;6278600;22;20252;-73
2022/08/04 02:36:08;;;;;;;7.07;5.90;;;;;;;18.78;66.29;97149.28;6174643;22;20233;-73
2022/08/04 02:38:52;;;;;;;6.60;5.60;;;;;;;18.85;66.25;97153.94;6174493;22;20197;-73
2022/08/04 02:41:22;;;;;;;7.10;5.93;;;;;;;19.13;65.55;97158.72;6174379;22;20229;-73
2022/08/04 02:43:51;;;;;;;8.07;6.30;;;;;;;19.16;64.80;97145.38;6174809;22;20170;-73
2022/08/04 02:46:21;;;;;;;6.10;5.50;;;;;;;19.09;65.07;97149.41;6174378;22;20165;-75
2022/08/04 02:48:50;;;;;;;7.40;5.60;;;;;;;18.97;65.49;97149.53;6174559;22;20170;-73
2022/08/04 02:51:29;;;;;;;8.10;5.43;;;;;;;18.93;65.59;97148.94;6174289;22;20166;-75
2022/08/04 02:53:57;;;;;;;8.30;5.23;;;;;;;18.84;65.54;97151.44;6174360;22;20174;-75
2022/08/04 02:56:29;;;;;;;5.80;5.20;;;;;;;18.78;65.35;97147.50;6174320;22;20700;-73
2022/08/04 02:59:02;;;;;;;6.10;5.50;;;;;;;18.71;65.92;97150.72;6174677;22;20229;-73
2022/08/04 03:01:30;;;;;;;5.40;4.90;;;;;;;18.55;66.15;97145.78;6174200;22;20251;-72
2022/08/04 03:04:09;;;;;;;6.00;5.40;;;;;;;18.34;67.02;97160.50;6174309;22;20171;-73
2022/08/04 03:07:05;;;;;;;5.97;5.37;;;;;;;18.28;67.41;97163.59;6174200;22;20223;-72
2022/08/04 03:10:11;;;;;;;6.17;4.83;;;;;;;18.34;67.53;97165.75;6268923;22;20259;-73
2022/08/04 03:13:12;;;;;;;5.47;4.50;;;;;;;18.28;67.61;97163.59;6174201;22;20451;-73
2022/08/04 03:16:00;;;;;;;6.30;5.07;;;;;;;18.39;67.37;97168.84;6277720;22;20568;-74
2022/08/04 03:18:45;;;;;;;4.33;3.93;;;;;;;18.49;67.30;97175.94;6174169;22;20191;-72
2022/08/04 03:21:18;;;;;;;4.90;4.40;;;;;;;18.53;67.42;97173.91;6174011;22;20196;-72
2022/08/04 03:24:07;;;;;;;7.40;4.70;;;;;;;18.59;67.25;97170.81;6148156;22;20538;-73
2022/08/04 03:26:59;;;;;;;6.93;4.80;;;;;;;18.71;66.87;97163.84;6251767;22;20177;-73
2022/08/04 03:29:47;;;;;;;5.87;5.27;;;;;;;18.85;66.15;97160.97;6174503;22;20679;-73
2022/08/04 03:32:33;;;;;;;4.40;4.00;;;;;;;18.88;66.05;97166.81;6174248;22;20177;-73
2022/08/04 03:35:23;;;;;;;5.63;4.50;;;;;;;18.88;65.81;97161.56;6174285;22;20168;-72
2022/08/04 03:38:11;;;;;;;5.23;4.43;;;;;;;18.95;65.34;97170.66;6175174;22;20209;-73
2022/08/04 03:40:50;;;;;;;4.93;4.43;;;;;;;19.08;64.84;97170.56;6174069;22;20519;-72
2022/08/04 03:43:17;;;;;;;5.70;4.30;;;;;;;19.24;64.71;97168.41;6174415;22;20202;-72
2022/08/04 03:46:19;;;;;;;6.37;4.30;;;;;;;19.66;62.99;97165.03;6152347;22;20177;-72
2022/08/04 03:49:01;;;;;;;4.43;4.03;;;;;;;19.86;62.44;97166.06;6173924;22;20252;-72
2022/08/04 03:54:47;;;;;;;5.27;4.23;;;;;;;20.06;61.61;97167.91;6227741;23;20426;-72
2022/08/04 03:57:39;;;;;;;5.03;4.47;;;;;;;20.22;61.08;97170.97;6173896;22;20189;-73
2022/08/04 04:00:29;;;;;;;6.70;4.33;;;;;;;20.36;60.44;97170.66;6174509;22;20592;-72
2022/08/04 04:03:20;;;;;;;5.73;4.10;;;;;;;20.80;59.86;97170.44;6173901;22;20201;-73
2022/08/04 04:06:26;;;;;;;5.73;4.03;;;;;;;21.22;58.39;97173.88;6173994;22;20167;-73
2022/08/04 04:08:57;;;;;;;6.07;3.97;;;;;;;21.12;58.73;97169.53;6274660;22;20627;-73
2022/08/04 04:11:31;;;;;;;6.20;3.60;;;;;;;21.45;57.35;97169.25;6173728;22;20163;-73
2022/08/04 04:14:43;;;;;;;4.87;4.40;;;;;;;21.33;57.93;97172.94;6277099;22;20198;-73
2022/08/04 04:17:24;;;;;;;7.77;4.13;;;;;;;20.99;59.15;97170.56;6173708;22;20661;-73
2022/08/04 04:20:20;;;;;;;5.60;5.10;;;;;;;20.96;59.71;97176.06;6173565;22;20641;-72
2022/08/04 04:23:07;;;;;;;8.50;5.53;;;;;;;21.08;59.43;97177.69;6173683;22;20298;-73
2022/08/04 04:26:11;;;;;;;6.10;4.80;;;;;;;20.86;60.09;97164.66;6274738;22;20198;-74
2022/08/04 04:29:02;;;;;;;5.67;5.00;;;;;;;21.10;59.58;97174.09;6173846;22;20170;-73
2022/08/04 04:31:48;;;;;;;6.57;4.80;;;;;;;21.30;59.61;97181.09;6173625;22;20596;-73
2022/08/04 04:34:33;;;;;;;6.07;4.77;;;;;;;21.32;59.74;97193.19;6173736;22;20249;-73
2022/08/04 04:37:21;;;;;;;5.50;5.00;;;;;;;21.43;59.33;97181.72;6173473;22;20250;-73
2022/08/04 04:40:09;;;;;;;8.10;6.07;;;;;;;22.34;57.35;97175.25;6275713;22;20172;-75
2022/08/04 04:43:00;;;;;;;6.80;4.70;;;;;;;22.90;55.10;97183.28;6173423;22;20589;-73
2022/08/04 04:45:39;;;;;;;5.57;4.37;;;;;;;23.14;55.02;97182.81;6173853;22;20630;-74
2022/08/04 04:48:15;;;;;;;4.70;4.20;;;;;;;22.62;56.00;97185.00;6174089;22;20596;-73
2022/08/04 04:51:39;;;;;;;6.63;4.67;;;;;;;22.43;56.72;97186.78;6174330;22;20301;-73
2022/08/04 04:54:21;;;;;;;4.83;4.40;;;;;;;22.88;55.70;97174.66;6152320;23;20177;-74
2022/08/04 04:57:06;;;;;;;4.50;3.93;;;;;;;22.86;55.23;97175.78;6204640;23;20169;-74
2022/08/04 04:59:38;;;;;;;5.77;4.53;;;;;;;23.14;54.90;97180.16;6152549;22;20179;-74
2022/08/04 05:02:49;;;;;;;6.70;4.40;;;;;;;23.44;54.21;97172.00;6146493;23;20219;-72
2022/08/04 05:05:57;;;;;;;7.20;4.47;;;;;;;23.71;53.59;97177.31;6173448;23;20171;-73
2022/08/04 05:08:36;;;;;;;5.43;3.70;;;;;;;24.13;51.63;97178.44;6082143;23;20180;-73
2022/08/04 05:11:42;;;;;;;6.10;4.20;;;;;;;24.49;51.14;97178.44;6168466;23;20291;-72
2022/08/04 05:14:32;;;;;;;4.53;4.10;;;;;;;24.83;50.79;97172.28;6122057;23;20622;-73
2022/08/04 05:17:34;;;;;;;6.20;4.20;;;;;;;24.91;50.01;97177.66;6173145;23;20632;-73
2022/08/04 05:20:07;;;;;;;10.00;4.63;;;;;;;25.34;49.06;97175.94;6172972;23;20174;-74
2022/08/04 05:22:38;;;;;;;5.23;4.10;;;;;;;25.19;48.52;97180.97;6173506;22;20200;-74
2022/08/04 05:25:25;;;;;;;8.67;4.40;;;;;;;25.25;49.16;97176.84;6172813;23;20235;-74
2022/08/04 05:28:04;;;;;;;5.23;3.80;;;;;;;25.09;49.14;97190.03;6121326;23;20511;-75
2022/08/04 05:30:47;;;;;;;6.00;4.33;;;;;;;25.04;49.79;97190.47;6173588;22;20204;-74
2022/08/04 05:33:26;;;;;;;5.97;4.40;;;;;;;25.09;48.85;97190.84;6078029;23;20194;-74
2022/08/04 05:36:01;;;;;;;5.87;4.23;;;;;;;25.01;49.51;97186.34;6123073;23;20683;-74
2022/08/04 05:38:58;;;;;;;10.63;4.70;;;;;;;24.97;49.50;97178.84;6146554;22;20170;-75
2022/08/04 05:41:27;;;;;;;6.83;3.97;;;;;;;25.20;48.46;97185.31;6172830;23;20170;-75
2022/08/04 05:44:18;;;;;;;7.80;5.57;;;;;;;25.33;48.68;97188.34;6172796;23;20276;-75
2022/08/04 05:46:51;;;;;;;6.40;4.03;;;;;;;25.72;47.70;97183.41;6172211;23;20280;-74
2022/08/04 05:49:26;;;;;;;4.77;4.00;;;;;;;26.05;47.74;97189.69;6146507;23;20178;-74
2022/08/04 05:51:57;;;;;;;8.80;5.73;;;;;;;26.38;45.72;97191.41;6174055;22;20223;-74
2022/08/04 05:54:26;;;;;;;5.93;3.60;;;;;;;26.35;45.98;97189.09;6174128;22;20225;-74
2022/08/04 05:56:54;;;;;;;7.60;4.53;;;;;;;25.74;46.53;97190.22;6252196;22;20167;-75
2022/08/04 05:59:24;;;;;;;6.90;4.13;;;;;;;25.59;46.11;97191.84;6277696;22;20652;-75
2022/08/04 06:01:56;;;;;;;4.80;3.87;;;;;;;25.74;46.27;97190.22;6174123;22;22029;-74
2022/08/04 06:04:30;;;;;;;6.33;4.10;;;;;;;25.22;47.62;97170.06;6252242;22;20564;-73
2022/08/04 06:06:58;;;;;;;7.80;4.00;;;;;;;25.49;46.57;97180.50;6252008;22;20182;-75
2022/08/04 06:09:26;;;;;;;5.30;3.27;;;;;;;25.88;45.57;97185.31;6277305;22;20194;-74
2022/08/04 06:11:57;;;;;;;5.47;4.30;;;;;;;26.22;45.05;97186.06;6174511;22;20234;-75
2022/08/04 06:14:37;;;;;;;9.40;4.70;;;;;;;26.45;44.75;97184.47;6174163;22;20249;-74
2022/08/04 06:17:06;;;;;;;8.70;4.60;;;;;;;26.63;44.54;97177.16;6173807;22;20566;-74
2022/08/04 06:19:55;;;;;;;5.17;3.83;;;;;;;26.82;44.47;97178.66;6256479;22;20549;-74
2022/08/04 06:22:48;;;;;;;6.20;3.60;;;;;;;26.87;44.01;97166.56;6252466;22;20234;-74
2022/08/04 06:25:21;;;;;;;6.27;3.50;;;;;;;26.95;43.22;97163.88;6278375;22;20189;-75
2022/08/04 06:28:22;;;;;;;4.93;3.57;;;;;;;27.26;42.71;97164.81;6249159;22;20558;-74
2022/08/04 06:30:50;;;;;;;6.80;4.27;;;;;;;27.38;41.90;97171.47;6174146;22;20167;-75
2022/08/04 06:33:26;;;;;;;3.23;3.00;;;;;;;27.11;40.45;97161.19;6174207;22;20177;-74
2022/08/04 06:35:54;;;;;;;4.63;3.10;;;;;;;27.33;41.11;97171.09;6173808;22;20166;-76
2022/08/04 06:38:24;;;;;;;7.67;3.90;;;;;;;27.37;40.02;97150.34;6173159;22;20568;-76
2022/08/04 06:40:56;;;;;;;3.13;2.93;;;;;;;27.66;39.44;97165.69;6277562;22;20213;-75
2022/08/04 06:43:27;;;;;;;4.23;3.27;;;;;;;27.90;39.10;97165.59;6251843;22;20218;-75
2022/08/04 06:46:01;;;;;;;4.53;3.00;;;;;;;27.87;38.90;97157.94;6174213;22;20171;-74
2022/08/04 06:48:31;;;;;;;6.73;4.10;;;;;;;28.08;38.46;97174.19;6174152;22;20163;-74
2022/08/04 06:51:01;;;;;;;4.20;3.37;;;;;;;27.95;37.87;97165.88;6252080;22;20500;-73
2022/08/04 06:53:48;;;;;;;3.67;3.30;;;;;;;28.01;37.77;97173.19;6276912;22;20208;-75
2022/08/04 06:56:17;;;;;;;5.50;3.10;;;;;;;27.96;37.57;97162.25;6180922;22;20225;-74
2022/08/04 06:58:45;;;;;;;3.50;3.07;;;;;;;28.19;37.94;97169.25;6152239;23;20231;-75
2022/08/04 07:01:15;;;;;;;4.83;3.63;;;;;;;28.42;37.89;97169.28;6176759;23;20775;-75
2022/08/04 07:03:43;;;;;;;6.53;3.70;;;;;;;28.50;37.67;97171.06;6203226;23;20209;-76
2022/08/04 07:06:15;;;;;;;5.70;2.93;;;;;;;28.66;37.77;97166.47;6204136;23;20165;-76
2022/08/04 07:08:44;;;;;;;7.33;3.87;;;;;;;28.82;36.82;97166.34;6177034;23;20185;-75
2022/08/04 07:11:12;;;;;;;4.67;3.13;;;;;;;29.06;35.65;97167.13;6204076;22;20189;-75
2022/08/04 07:13:39;;;;;;;3.27;2.97;;;;;;;28.93;35.75;97157.88;6203735;23;20692;-75
2022/08/04 07:16:14;;;;;;;4.30;3.50;;;;;;;29.22;35.65;97170.50;6177227;23;20166;-75
2022/08/04 07:18:41;;;;;;;4.50;2.70;;;;;;;29.32;36.23;97170.19;6204025;23;20614;-74
2022/08/04 07:21:10;;;;;;;6.40;3.20;;;;;;;29.37;35.29;97165.97;6203719;23;20645;-74
2022/08/04 07:23:37;;;;;;;3.43;3.00;;;;;;;29.37;35.72;97154.44;6152513;23;20205;-74
2022/08/04 07:26:04;;;;;;;3.60;2.80;;;;;;;29.45;35.32;97163.19;6203917;23;20166;-72
2022/08/04 07:28:40;;;;;;;5.80;2.90;;;;;;;29.53;35.59;97154.28;6203731;22;20188;-75
2022/08/04 07:31:18;;;;;;;4.23;2.73;;;;;;;29.15;35.41;97158.03;6203814;23;20173;-73
2022/08/04 07:34:02;;;;;;;6.07;3.17;;;;;;;29.10;35.01;97149.75;6180518;23;20162;-74
2022/08/04 07:36:50;;;;;;;4.43;3.23;;;;;;;29.27;35.74;97148.56;6176725;23;20192;-74
2022/08/04 07:39:23;;;;;;;6.20;3.10;;;;;;;29.39;35.53;97142.59;6152573;23;20266;-76
2022/08/04 07:41:57;;;;;;;3.90;2.77;;;;;;;29.49;34.17;97151.13;6203347;23;20172;-75
2022/08/04 07:44:34;;;;;;;3.70;2.43;;;;;;;29.11;34.73;97140.72;6203675;23;20178;-73
2022/08/04 07:47:04;;;;;;;3.53;2.63;;;;;;;29.42;34.28;97138.72;6203724;23;20797;-75
2022/08/04 07:49:32;;;;;;;4.17;2.87;;;;;;;29.71;34.50;97146.72;6203343;23;20162;-75
2022/08/04 07:52:20;;;;;;;3.30;3.00;;;;;;;30.05;32.96;97141.59;6176488;23;20667;-75
2022/08/04 07:54:49;;;;;;;3.13;2.80;;;;;;;30.03;32.57;97135.63;6192465;22;20199;-75
2022/08/04 07:57:17;;;;;;;2.50;2.17;;;;;;;30.14;30.68;97144.97;6173064;22;20187;-75
2022/08/04 08:00:07;;;;;;;5.67;2.83;;;;;;;30.07;31.26;97144.09;6257400;22;20522;-74
2022/08/04 08:02:48;;;;;;;5.23;2.80;;;;;;;30.19;32.42;97139.91;6270303;22;20200;-75
2022/08/04 08:05:19;;;;;;;5.67;2.93;;;;;;;30.28;32.36;97138.75;6172830;22;20166;-74
2022/08/04 08:07:50;;;;;;;3.80;3.50;;;;;;;30.44;31.51;97138.53;6172948;22;20174;-75
2022/08/04 08:10:22;;;;;;;4.07;3.10;;;;;;;30.36;33.39;97136.81;6172776;22;20171;-73
2022/08/04 08:12:50;;;;;;;4.20;2.47;;;;;;;30.22;31.85;97134.16;6172925;22;20530;-75
2022/08/04 08:15:19;;;;;;;7.07;3.23;;;;;;;30.33;31.83;97129.19;6172955;22;20464;-75
2022/08/04 08:17:46;;;;;;;4.40;2.53;;;;;;;30.40;31.58;97126.56;6173036;22;20556;-73
2022/08/04 08:20:27;;;;;;;2.90;2.60;;;;;;;30.56;32.11;97106.78;6173178;22;20173;-75
2022/08/04 08:22:58;;;;;;;3.47;2.83;;;;;;;30.65;32.29;97129.66;6273963;22;20222;-74
2022/08/04 08:25:28;;;;;;;4.20;2.63;;;;;;;30.56;31.77;97136.19;6172900;22;20255;-74
2022/08/04 08:27:55;;;;;;;3.97;2.90;;;;;;;30.61;32.58;97123.03;6172940;22;20177;-74
2022/08/04 08:30:24;;;;;;;4.23;3.30;;;;;;;30.76;32.10;97134.50;6277675;22;20175;-73
2022/08/04 08:33:01;;;;;;;3.77;3.37;;;;;;;30.77;31.86;97128.94;6269740;22;20170;-74
2022/08/04 08:35:38;;;;;;;7.43;2.70;;;;;;;30.98;31.31;97126.28;6274332;22;20246;-75
2022/08/04 08:38:33;;;;;;;4.97;2.80;;;;;;;30.69;32.12;97131.75;6264667;22;20187;-75
2022/08/04 08:41:22;;;;;;;4.10;2.87;;;;;;;30.64;32.27;97128.84;6182748;22;20175;-74
2022/08/04 08:44:01;;;;;;;3.17;2.40;;;;;;;30.74;32.02;97123.16;6174628;22;20194;-74
2022/08/04 08:46:39;;;;;;;6.63;2.77;;;;;;;30.95;32.63;97125.84;6173604;22;20170;-73
2022/08/04 08:49:39;;;;;;;4.23;2.60;;;;;;;31.07;30.76;97119.75;6173938;22;20220;-73
2022/08/04 08:52:36;;;;;;;5.47;2.90;;;;;;;31.13;31.27;97118.13;6277959;22;20173;-75
2022/08/04 08:55:41;;;;;;;3.38;2.80;;;;;;;31.19;31.35;97117.34;6258866;22;20194;-75
2022/08/04 08:58:31;;;;;;;5.40;3.13;;;;;;;31.04;31.25;97109.44;6173511;22;20258;-75
2022/08/04 09:01:09;;;;;;;6.63;2.97;;;;;;;31.24;31.52;97107.69;6173592;22;20176;-76
2022/08/04 09:03:55;;;;;;;4.10;2.53;;;;;;;31.42;31.12;97107.22;6277217;22;20206;-75
2022/08/04 09:06:44;;;;;;;4.32;3.30;;;;;;;31.57;30.95;97104.41;6172653;22;20167;-74
2022/08/04 09:09:17;;;;;;;3.63;2.85;;;;;;;31.38;30.90;97103.25;6173180;22;20174;-74
2022/08/04 09:12:12;;;;;;;4.53;2.90;;;;;;;31.10;31.72;97097.09;6173159;22;20600;-75
2022/08/04 09:15:07;;;;;;;4.87;2.97;;;;;;;30.83;32.14;97090.72;6173469;22;20700;-74
2022/08/04 09:17:49;;;;;;;4.53;2.80;;;;;;;30.38;32.70;97088.50;6201471;22;20182;-74
2022/08/04 09:21:03;;;;;;;3.30;2.67;;;;;;;29.91;32.62;97101.56;6175453;22;20167;-74
2022/08/04 09:23:50;;;;;;;3.23;2.70;;;;;;;29.86;32.69;97102.16;6176273;23;20565;-74
2022/08/04 09:26:39;;;;;;;2.77;2.50;;;;;;;29.98;32.28;97089.94;6178074;23;20742;-75
2022/08/04 09:29:09;;;;;;;4.73;2.80;;;;;;;30.17;32.21;97086.63;6175098;22;20182;-76
2022/08/04 09:32:01;;;;;;;5.83;2.97;;;;;;;30.17;31.24;97097.31;6175862;22;20257;-75
2022/08/04 09:34:52;;;;;;;3.03;2.60;;;;;;;29.97;31.00;97093.63;6277888;22;20274;-75
2022/08/04 09:37:37;;;;;;;4.13;2.77;;;;;;;30.25;31.11;97093.72;6173862;22;20546;-75
2022/08/04 09:40:32;;;;;;;3.10;2.33;;;;;;;30.19;30.76;97100.63;6173959;22;20209;-75
2022/08/04 09:43:25;;;;;;;3.50;2.70;;;;;;;30.24;30.19;97100.91;6173559;22;20653;-76
2022/08/04 09:45:55;;;;;;;3.77;2.50;;;;;;;30.20;30.70;97104.97;6277516;22;20484;-75
2022/08/04 09:48:57;;;;;;;4.03;2.97;;;;;;;29.91;31.48;97086.38;6173831;22;20919;-75
2022/08/04 09:51:49;;;;;;;4.90;2.50;;;;;;;29.72;31.82;97084.28;6276505;22;20166;-75
2022/08/04 09:54:52;;;;;;;3.23;2.70;;;;;;;29.62;31.47;97103.25;6277609;22;20194;-75
2022/08/04 09:57:33;;;;;;;6.50;3.03;;;;;;;29.53;32.48;97100.91;6174168;22;20170;-75
2022/08/04 10:00:04;;;;;;;2.90;2.70;;;;;;;29.65;32.20;97097.56;6175539;22;20176;-75
2022/08/04 10:02:46;;;;;;;3.97;3.20;;;;;;;29.67;32.38;97102.72;6176934;22;20164;-75
2022/08/04 10:05:18;;;;;;;3.13;2.50;;;;;;;29.64;32.42;97095.06;6174450;22;20181;-75
2022/08/04 10:07:57;;;;;;;5.30;2.67;;;;;;;29.74;32.41;97099.13;6174443;22;20245;-76
2022/08/04 10:10:48;;;;;;;4.90;2.53;;;;;;;29.88;32.44;97105.47;6173823;22;20173;-76
2022/08/04 10:13:24;;;;;;;2.83;2.57;;;;;;;29.74;32.12;97103.63;6278014;22;20241;-76
2022/08/04 10:16:10;;;;;;;6.50;2.37;;;;;;;29.67;32.30;97100.88;6174150;22;20166;-76
2022/08/04 10:19:10;;;;;;;3.33;2.60;;;;;;;29.60;32.52;97091.94;6277593;22;20174;-76
2022/08/04 10:22:11;;;;;;;2.80;2.30;;;;;;;29.73;32.23;97088.63;6174631;22;20182;-76
2022/08/04 10:25:15;;;;;;;2.80;2.37;;;;;;;29.71;31.35;97090.63;6173500;22;20273;-75
2022/08/04 10:28:07;;;;;;;5.07;2.80;;;;;;;29.70;31.11;97070.28;6173830;22;20174;-74
2022/08/04 10:30:39;;;;;;;2.50;2.07;;;;;;;29.71;30.77;97080.78;6276409;22;20532;-75
2022/08/04 10:33:22;;;;;;;3.17;2.87;;;;;;;29.91;31.21;97083.69;6174114;22;20165;-76
2022/08/04 10:36:00;;;;;;;6.07;2.60;;;;;;;29.99;31.75;97064.03;6276629;22;20167;-76
2022/08/04 10:38:39;;;;;;;2.63;2.43;;;;;;;30.04;30.78;97073.16;6173247;22;20190;-73
2022/08/04 10:41:29;;;;;;;2.90;2.40;;;;;;;30.15;31.83;97080.66;6251854;22;20179;-73
2022/08/04 10:44:22;;;;;;;2.33;2.13;;;;;;;30.35;30.75;97080.88;6173925;22;20202;-74
2022/08/04 10:46:56;;;;;;;2.93;2.30;;;;;;;30.32;30.50;97068.72;6303256;22;20258;-74
2022/08/04 10:49:33;;;;;;;3.20;2.13;;;;;;;30.31;30.03;97060.91;6173730;22;20166;-75
2022/08/04 10:52:41;;;;;;;4.57;2.70;;;;;;;30.81;28.76;97073.25;6173628;22;20162;-74
2022/08/04 10:55:30;;;;;;;2.70;2.50;;;;;;;30.93;28.82;97069.03;6173539;22;20203;-75
2022/08/04 10:58:26;;;;;;;2.30;2.10;;;;;;;30.88;28.85;97066.09;6257117;22;20178;-76
2022/08/04 11:01:28;;;;;;;3.50;2.57;;;;;;;30.97;29.43;97059.59;6276453;22;20170;-75
2022/08/04 11:04:40;;;;;;;2.40;2.20;;;;;;;30.97;28.34;97057.75;6276836;22;20206;-75
2022/08/04 11:07:08;;;;;;;3.60;2.47;;;;;;;31.06;28.00;97058.38;6173459;22;20584;-75
2022/08/04 11:09:38;;;;;;;4.70;2.63;;;;;;;31.18;28.33;97056.84;6173235;22;20507;-75
2022/08/04 11:12:05;;;;;;;3.47;2.60;;;;;;;31.10;28.66;97044.41;6173430;22;20174;-75
2022/08/04 11:14:38;;;;;;;3.37;2.30;;;;;;;30.92;29.47;97062.84;6277066;22;20171;-75
2022/08/04 11:17:17;;;;;;;3.97;2.40;;;;;;;30.97;28.93;97048.88;6173448;22;20638;-74
2022/08/04 11:19:50;;;;;;;3.23;2.40;;;;;;;31.37;29.02;97050.72;6173504;22;20167;-75
2022/08/04 11:22:27;;;;;;;3.27;2.50;;;;;;;31.17;28.35;97060.50;6173022;22;20170;-75
2022/08/04 11:25:21;;;;;;;4.40;2.40;;;;;;;31.50;26.53;97045.47;6173260;22;20194;-74
2022/08/04 11:28:10;;;;;;;2.53;2.10;;;;;;;31.48;26.16;97063.59;6276739;22;20186;-75
2022/08/04 11:30:50;;;;;;;3.67;2.30;;;;;;;31.11;27.36;97048.75;6173152;22;20545;-75
2022/08/04 11:33:34;;;;;;;3.03;2.33;;;;;;;31.05;28.40;97041.53;6277053;22;20184;-74
2022/08/04 11:36:41;;;;;;;3.43;2.30;;;;;;;31.11;28.72;97055.97;6276976;22;20174;-75
2022/08/04 11:39:16;;;;;;;3.13;2.03;;;;;;;31.10;28.89;97054.28;6250986;22;20228;-75
2022/08/04 11:42:00;;;;;;;2.63;2.43;;;;;;;30.77;29.43;97050.59;6275812;22;20158;-74
2022/08/04 11:44:40;;;;;;;3.60;2.67;;;;;;;30.94;30.18;97046.59;6276727;22;20194;-75
2022/08/04 11:47:20;;;;;;;2.67;2.47;;;;;;;31.00;29.36;97024.38;6275826;22;20170;-75
2022/08/04 11:50:19;;;;;;;3.30;2.10;;;;;;;30.78;28.56;97046.88;6277074;22;20560;-75
2022/08/04 11:52:47;;;;;;;4.07;2.27;;;;;;;30.85;27.92;97039.75;6173440;22;20184;-76
2022/08/04 11:55:20;;;;;;;2.33;2.13;;;;;;;30.83;27.75;97049.78;6173068;22;20205;-74
2022/08/04 11:57:48;;;;;;;3.10;2.10;;;;;;;30.83;28.84;97039.91;6172997;22;20587;-75
2022/08/04 12:00:27;;;;;;;3.30;2.30;;;;;;;30.96;28.76;97033.84;6276629;22;20174;-74
2022/08/04 12:03:19;;;;;;;5.13;2.40;;;;;;;30.79;29.58;97045.84;6173362;22;20220;-75
2022/08/04 12:05:57;;;;;;;2.50;2.30;;;;;;;30.56;29.20;97024.72;6275408;22;20239;-74
2022/08/04 12:09:02;;;;;;;3.40;2.70;;;;;;;30.36;29.82;97023.72;6173087;22;20166;-74
2022/08/04 12:12:01;;;;;;;3.23;2.63;;;;;;;30.36;30.12;97029.91;6276919;22;20693;-75
2022/08/04 12:14:48;;;;;;;2.60;2.40;;;;;;;30.14;31.49;97017.56;6173321;22;20642;-74
2022/08/04 12:17:24;;;;;;;4.23;2.37;;;;;;;30.29;30.92;97026.38;6276325;22;20236;-74
2022/08/04 12:20:00;;;;;;;2.67;2.47;;;;;;;30.29;30.92;97017.47;6172773;22;20232;-75
2022/08/04 12:22:50;;;;;;;3.17;2.87;;;;;;;30.41;31.07;97022.13;6276196;22;20652;-75
2022/08/04 12:25:38;;;;;;;4.50;2.73;;;;;;;30.68;30.37;97020.47;6276289;22;20247;-75
2022/08/04 12:28:34;;;;;;;5.10;2.40;;;;;;;30.82;30.34;97008.00;6252432;22;20175;-75
2022/08/04 12:31:46;;;;;;;2.50;2.30;;;;;;;30.89;29.10;97008.91;6172757;22;20216;-75
2022/08/04 12:34:30;;;;;;;2.40;2.20;;;;;;;31.01;29.51;97010.00;6173177;22;20166;-74
2022/08/04 12:37:04;;;;;;;3.87;2.70;;;;;;;31.17;29.09;97002.47;6275903;22;20519;-75
2022/08/04 12:39:34;;;;;;;2.63;2.20;;;;;;;31.15;28.29;96992.97;6172645;22;20167;-75
2022/08/04 12:42:26;;;;;;;3.70;2.63;;;;;;;31.13;29.32;96995.88;6173454;22;20167;-75
2022/08/04 12:44:56;;;;;;;2.90;2.50;;;;;;;31.13;28.37;96990.50;6172819;22;20195;-75